CheckWX is a tool to help pilots better visualize weather data.  It is not intended as a substitute for an official pre-flight weather briefing.

13:58:45 UTC

KFAT METAR
Fresno Yosemite International Airport
Fresno, California, USA
Current

1 hour ago

KFAT 201253Z 32009KT 10SM FEW130 18/14 A2993 RMK AO2 SLP131 T01830139
Observed
Aug-20 @ 12:53 UTC
Wind
  • 320° at 9 KTS
Visibility
10 SM
Flight Rules
VFR
Cloud Levels
  • Few at 13,000' AGL
Temperature
18°C / 64°F
Dewpoint
14°C / 57°F
Humidity
78%
Altimeter
29.93" Hg
Pressure
1013.52 hPa
Previous

2 hours ago

KFAT 201153Z 32007KT 10SM CLR 19/14 A2992 RMK AO2 SLP128 T01890139 10256 20189 53006
Observed
Aug-20 @ 11:53 UTC
Wind
  • 320° at 7 KTS
Visibility
10 SM
Flight Rules
VFR
Cloud Levels
  • Clear skies
Temperature
19°C / 66°F
Dewpoint
14°C / 57°F
Humidity
73%
Altimeter
29.92" Hg
Pressure
1013.22 hPa
Previous

3 hours ago

KFAT 201053Z 32006KT 10SM CLR 20/14 A2991 RMK AO2 SLP125 T02000144
Observed
Aug-20 @ 10:53 UTC
Wind
  • 320° at 6 KTS
Visibility
10 SM
Flight Rules
VFR
Cloud Levels
  • Clear skies
Temperature
20°C / 68°F
Dewpoint
14°C / 57°F
Humidity
69%
Altimeter
29.91" Hg
Pressure
1012.92 hPa